Weather observations for the past three days for
New Market Airport
Imperial (Metric)
Date Time (edt) Wind (mph) Vis. (mi.) Weather Sky Cond. Temperature (ºF) Relative Humidity Wind Chill (°F) Heat Index (°F) Pressure Precipitation (in)
Air Dwpt 6 hour altimeter (in) sea level (mb) 1 hr 3 hr 6 hr
Max. Min.
09 16:15 SW 9 10.00 Overcast OVC090 76.1 40.1 27% 77 29.74 0.0
09 15:55 SW 7 10.00 Overcast OVC100 74.8 38.7 27% 29.75 0.0
09 15:35 SW 10 G 21 10.00 Mostly Cloudy SCT070 BKN100 75.7 39.4 27% 77 29.76 0.0
09 15:15 S 6 10.00 Partly Cloudy SCT060 SCT085 SCT120 75.2 42.4 31% 77 29.77 0.0
09 14:55 S 7 10.00 Partly Cloudy SCT060 73.6 44.8 36% 29.77 0.0
09 14:35 S 3 10.00 Partly Cloudy SCT060 SCT100 SCT120 72.7 46.4 39% 29.78 0.0
09 14:15 S 7 10.00 Mostly Cloudy SCT080 BKN100 70.9 47.1 43% 29.8 0.0
09 13:55 Calm 10.00 Partly Cloudy SCT090 SCT110 70.2 45.5 70.9 58.1 41% 29.81 0.0
09 13:35 S 8 10.00 Partly Cloudy SCT120 69.6 46.6 44% 29.81 0.0
09 13:15 S 5 10.00 Partly Cloudy SCT080 SCT120 69.1 44.6 41% 29.81 0.0
09 12:55 SW 6 10.00 Mostly Cloudy BKN080 69.8 42.1 37% 29.82 0.0
09 12:35 SW 3 10.00 Mostly Cloudy BKN080 BKN090 70.7 42.8 37% 29.82 0.0
09 12:15 S 3 10.00 Mostly Cloudy BKN080 BKN090 69.4 43.9 40% 29.82 0.0
09 11:55 S 5 10.00 Mostly Cloudy BKN080 68.2 43.9 42% 29.82 0.0
09 11:35 SE 3 10.00 Fair CLR 68.2 44.2 42% 29.82 0.0
09 11:15 Calm 10.00 Fair CLR 67.6 43.9 42% 29.82 0.0
09 10:55 W 5 10.00 Fair CLR 66.9 43.2 42% 29.82 0.0
09 10:35 SW 7 10.00 Fair CLR 66 44.6 46% 29.83 0.0
09 10:15 Calm 10.00 Fair CLR 63.7 42.4 46% 29.84 0.0
09 09:55 Calm 10.00 Partly Cloudy SCT120 62.1 42.6 49% 29.85 0.0
09 09:35 Calm 10.00 Partly Cloudy SCT120 61 42.1 50% 29.86 0.0
09 09:15 Calm 10.00 Fair CLR 59.9 40.3 48% 29.85 0.0
09 08:55 Calm 10.00 Fair CLR 59 39.2 48% 29.85 0.0
09 08:35 Calm 10.00 Fair CLR 58.1 39.6 50% 29.85 0.0
09 08:15 W 5 10.00 Partly Cloudy SCT100 SCT120 58.3 38.3 48% 29.85 0.0
09 07:55 W 7 10.00 Mostly Cloudy BKN120 58.1 37.8 58.5 55.2 47% 29.85 0.0
09 07:35 W 7 10.00 Overcast OVC120 58.1 37.2 46% 29.85 0.0
09 07:15 W 3 10.00 Overcast OVC110 57.7 36.9 46% 29.85 0.0
09 06:55 W 6 10.00 Overcast OVC120 57.4 36.5 46% 29.85 0.0
09 06:35 W 8 10.00 Overcast OVC120 57.9 36 44% 29.85 0.0
09 06:15 W 6 10.00 Overcast OVC110 57.7 36 44% 29.85 0.0
09 05:55 W 6 10.00 Overcast OVC110 58.1 35.8 43% 29.85 0.0
09 05:35 W 6 10.00 Overcast OVC110 58.1 35.8 43% 29.85 0.0
09 05:15 W 7 10.00 Overcast OVC110 58.3 35.4 42% 29.85 0.0
09 04:55 SW 5 10.00 Overcast OVC110 58.3 35.4 42% 29.85 0.0
09 04:35 W 3 10.00 Overcast OVC100 57.6 36.3 45% 29.86 0.0
09 04:15 Calm 10.00 Overcast OVC100 55.2 39.6 56% 29.86 0.0
09 03:55 Calm 10.00 Overcast OVC100 55.8 39 54% 29.86 0.0
09 03:35 Calm 10.00 Overcast OVC100 57 37 47% 29.87 0.0
09 03:15 SW 5 10.00 Overcast OVC100 56.8 37.4 48% 29.87 0.0
09 02:55 SW 5 10.00 Overcast OVC100 57.2 36.1 45% 29.87 0.0
09 02:35 SW 5 10.00 Mostly Cloudy BKN110 56.8 35.6 45% 29.88 0.0
09 02:15 SW 5 10.00 Partly Cloudy SCT110 56.3 35.6 46% 29.88 0.0
09 01:55 SW 3 10.00 Partly Cloudy SCT120 57.2 35.6 63.9 54.5 44% 29.89 0.0
09 01:35 SW 6 10.00 Mostly Cloudy BKN120 55.8 36.7 49% 29.89 0.0
09 01:15 SW 6 10.00 Partly Cloudy SCT120 58.3 35.4 42% 29.89 0.0
09 00:55 SW 6 10.00 Fair CLR 59 35.8 42% 29.89 0.0
09 00:35 W 7 10.00 Partly Cloudy SCT120 58.8 36.1 43% 29.89 0.0
09 00:15 W 5 10.00 Partly Cloudy SCT120 59.2 36 42% 29.88 0.0
08 23:55 SW 6 10.00 Partly Cloudy SCT110 59.9 36.5 42% 29.89 0.0
08 23:35 W 7 10.00 Fair CLR 59.4 36.9 43% 29.89 0.0
08 23:15 W 7 10.00 Fair CLR 59 37.4 45% 29.89 0.0
08 22:55 SW 7 10.00 Fair CLR 59.5 37 43% 29.89 0.0
08 22:35 SW 8 10.00 Fair CLR 60.8 36.9 41% 29.89 0.0
08 22:15 SW 7 10.00 Fair CLR 60.8 37.2 42% 29.89 0.0
08 21:55 W 3 10.00 Fair CLR 61 37.4 42% 29.88 0.0
08 21:35 W 3 10.00 Fair CLR 57.2 38.7 50% 29.88 0.0
08 20:55 Calm 10.00 Partly Cloudy SCT100 59.7 38.7 46% 29.87 0.0
08 20:35 S 5 10.00 Mostly Cloudy BKN100 61.7 37 40% 29.87 0.0
08 20:15 S 3 10.00 Mostly Cloudy BKN100 63 37.2 39% 29.86 0.0
08 19:55 SE 5 10.00 Partly Cloudy SCT100 64.2 36.5 72.9 64.2 36% 29.85 0.0
08 19:35 S 5 10.00 Partly Cloudy SCT100 65.8 36.5 34% 29.85 0.0
08 19:15 S 3 10.00 Partly Cloudy SCT100 66.6 35.8 32% 29.85 0.0
08 18:55 S 6 10.00 Partly Cloudy SCT100 69.6 35.6 29% 29.85 0.0
08 18:35 S 7 10.00 Partly Cloudy SCT100 69.6 32.9 26% 29.85 0.0
08 18:15 S 7 10.00 Fair CLR 71.2 34 25% 29.84 0.0
08 17:55 S 7 10.00 Partly Cloudy SCT100 71.4 34.7 26% 29.84 0.0
08 17:35 S 3 10.00 Partly Cloudy SCT100 68 36.1 31% 29.85 0.0
08 17:15 Calm 10.00 Mostly Cloudy BKN100 70.3 31.6 24% 29.85 0.0
08 16:55 S 3 10.00 Overcast OVC100 71.6 31.8 23% 29.85 0.0
08 16:35 Calm 10.00 Overcast OVC100 71.6 33.1 24% 29.86 0.0
08 16:15 S 7 10.00 Overcast OVC100 71.6 32.4 24% 29.86 0.0
08 15:55 Calm 10.00 Mostly Cloudy BKN100 69.4 28.6 22% 29.87 0.0
08 15:35 Calm 10.00 Partly Cloudy SCT100 71.2 30.2 22% 29.88 0.0
08 15:15 S 5 10.00 Fair CLR 71.6 32 23% 29.89 0.0
08 14:55 SW 5 G 16 10.00 Fair CLR 70.9 28.4 21% 29.9 0.0
08 14:35 S 7 G 17 10.00 Partly Cloudy SCT090 70.3 30.7 23% 29.91 0.0
08 14:15 SW 9 G 18 10.00 Partly Cloudy SCT090 69.3 30.9 24% 29.92 0.0
08 13:55 S 5 10.00 Fair CLR 68.5 30.9 68.7 46.2 25% 29.93 0.0
08 13:35 SW 7 10.00 Fair CLR 67.3 28.4 23% 29.95 0.0
08 13:15 S 13 G 17 10.00 Fair CLR 67.6 31.3 26% 29.95 0.0
08 12:55 SW 6 G 20 10.00 Fair CLR 66.6 29.8 25% 29.96 0.0
08 12:35 SW 3 G 16 10.00 Partly Cloudy SCT080 65.8 29.7 26% 29.97 0.0
08 12:15 SW 5 G 17 10.00 Partly Cloudy SCT080 64.8 27.7 25% 29.98 0.0
08 11:55 SW 10 G 21 10.00 Partly Cloudy SCT080 64.8 27.3 24% 29.99 0.0
08 11:35 W 6 10.00 Partly Cloudy SCT080 64.4 29.8 27% 29.99 0.0
08 11:15 W 7 10.00 Partly Cloudy SCT075 63.5 29.5 28% 30 0.0
08 10:55 SW 9 G 16 10.00 Fair CLR 63 30.2 29% 30 0.0
08 10:35 SW 6 10.00 Fair CLR 61.2 31.6 33% 30 0.0
08 10:15 S 3 10.00 Fair CLR 59.9 31.5 34% 30 0.0
08 09:55 S 6 10.00 Fair CLR 58.3 31.3 36% 30.01 0.0
08 09:35 S 5 10.00 Fair CLR 56.7 32.2 40% 30.02 0.0
08 09:15 SW 5 10.00 Fair CLR 54.7 33.3 44% 30.02 0.0
08 08:55 SW 5 10.00 Fair CLR 52.5 33.8 49% 30.02 0.0
08 08:35 SW 6 10.00 Fair CLR 50.5 34.7 55% 30.03 0.0
08 08:15 SW 6 10.00 NULL NULL 48.2 34.3 59% 46 30.02 0.0
08 07:55 SW 6 10.00 NULL NULL 45.9 33.6 45.9 33.8 62% 43 30.02 0.0
08 07:35 SW 5 10.00 NULL NULL 43.7 34.9 71% 42 30.02 0.0
08 07:15 Calm 10.00 NULL NULL 40.1 39 96% 30.01 0.0
08 06:55 SW 3 10.00 NULL NULL 38.3 37.2 96% 30 0.0
08 06:35 Calm 10.00 NULL NULL 35.6 34.5 96% 29.99 0.0
08 06:15 Calm 10.00 NULL NULL 35.1 34 96% 29.99 0.0
08 05:55 Calm 10.00 NULL NULL 35.4 34.3 96% 29.98 0.0
08 05:35 Calm 10.00 NULL NULL 36.9 35.8 96% 29.97 0.0
08 05:15 Calm 10.00 NULL NULL 36.5 35.6 97% 29.97 0.0
08 04:55 Calm 10.00 NULL NULL 39.6 34.5 82% 29.97 0.0
08 04:35 W 5 10.00 NULL NULL 39.6 35.4 85% 37 29.97 0.0
08 04:15 Calm 10.00 NULL NULL 38.3 34.2 85% 29.96 0.0
08 03:55 Calm 10.00 NULL NULL 41.5 34.5 76% 29.95 0.0
08 03:35 Calm 10.00 NULL NULL 39.9 37.2 90% 29.95 0.0
08 03:15 Calm 10.00 NULL NULL 42.3 34.3 74% 29.95 0.0
08 02:55 Calm 10.00 NULL NULL 40.8 33.8 76% 29.95 0.0
08 02:35 Calm 10.00 NULL NULL 42.3 33.4 71% 29.94 0.0
08 02:15 Calm 10.00 NULL NULL 42.3 33.6 72% 29.94 0.0
08 01:55 Calm 10.00 NULL NULL 43 34.9 62.1 43 73% 29.94 0.0
08 01:35 Calm 10.00 NULL NULL 44.2 33.8 67% 29.94 0.0
08 01:15 Calm 10.00 NULL NULL 45.9 34 63% 29.94 0.0
08 00:55 Calm 10.00 NULL NULL 44.4 35.1 70% 29.94 0.0
08 00:35 Calm 10.00 NULL NULL 44.6 34.9 69% 29.93 0.0
08 00:15 Calm 10.00 NULL NULL 44.4 35.8 72% 29.92 0.0
07 23:55 Calm 10.00 NULL NULL 44.8 36.1 72% 29.91 0.0
07 23:35 Calm 10.00 NULL NULL 45.1 36 70% 29.9 0.0
07 23:15 Calm 10.00 NULL NULL 47.5 35.4 63% 29.9 0.0
07 22:55 Calm 10.00 NULL NULL 49.1 35.2 59% 29.89 0.0
07 22:35 Calm 10.00 NULL NULL 50.2 35.4 57% 29.89 0.0
07 22:15 N 3 10.00 NULL NULL 51.4 35.1 54% 29.88 0.0
07 21:55 Calm 10.00 NULL NULL 54.5 33.8 46% 29.87 0.0
07 21:35 Calm 10.00 NULL NULL 56.3 33.3 42% 29.87 0.0
07 21:15 NW 3 10.00 NULL NULL 57 32.7 40% 29.86 0.0
07 20:55 Calm 10.00 NULL NULL 58.5 32.7 38% 29.85 0.0
07 20:35 NW 3 10.00 NULL NULL 60.4 31.1 33% 29.84 0.0
07 20:15 N 3 10.00 NULL NULL 61 31.8 33% 29.83 0.0
07 19:55 NW 5 10.00 NULL NULL 62.6 32.2 69.1 62.6 32% 29.82 0.0
07 19:35 NW 6 10.00 NULL NULL 63.5 32.7 32% 29.81 0.0
07 19:15 NW 3 10.00 NULL NULL 65.8 33.1 30% 29.79 0.0
07 18:55 N 6 10.00 NULL NULL 67.1 33.1 28% 29.78 0.0
07 18:35 NW 5 10.00 NULL NULL 68.2 34 28% 29.77 0.0
07 18:15 W 3 10.00 NULL NULL 66.6 44.1 44% 29.77 0.0
07 17:55 Calm 10.00 NULL NULL 68.7 45.1 43% 29.76 0.0
07 17:35 Calm 10.00 NULL NULL 66.6 43.5 43% 29.76 0.0
07 17:15 SW 3 10.00 NULL NULL 66.2 43.2 43% 29.76 0.0
07 16:35 SW 3 10.00 NULL NULL 68.2 42.6 40% 29.76 0.0
07 16:15 W 3 10.00 NULL NULL 67.5 43.5 42% 29.76 0.0
07 15:55 Calm 10.00 Partly Cloudy SCT075 66.4 41.7 41% 29.77 0.0
07 15:35 Calm 10.00 Partly Cloudy SCT049 SCT075 64.8 42.8 45% 29.78 0.0
07 15:15 S 6 10.00 Mostly Cloudy BKN049 BKN065 66 42.6 43% 29.79 0.0
07 14:55 E 5 10.00 Mostly Cloudy SCT049 BKN060 66.9 43.7 43% 29.79 0.0
07 14:35 Calm 10.00 Partly Cloudy SCT060 66 42.6 43% 29.8 0.0
07 14:15 Calm 10.00 Mostly Cloudy SCT049 BKN060 65.1 43 45% 29.8 0.0
07 13:55 N 3 10.00 Overcast SCT047 OVC050 63.3 42.4 64.6 53.6 47% 29.82 0.0
07 13:35 E 5 10.00 Overcast OVC050 62.8 42.3 47% 29.82 0.0
07 13:15 SE 3 10.00 Overcast SCT045 OVC050 63 43.9 50% 29.84 0.0
07 12:55 NE 5 10.00 Mostly Cloudy BKN048 62.4 43.3 50% 29.85 0.0
07 12:35 Calm 10.00 Mostly Cloudy SCT041 BKN050 61.5 41.4 48% 29.85 0.0
07 12:15 Calm 10.00 Overcast SCT039 OVC048 59 41 51% 29.87 0.0
07 11:55 E 7 10.00 Mostly Cloudy BKN039 BKN048 60.1 43.9 55% 29.87 0.0
07 11:35 Calm 10.00 Mostly Cloudy SCT041 BKN050 57.9 42.4 57% 29.88 0.0
07 11:15 N 3 10.00 Overcast SCT034 OVC043 56.5 42.8 60% 29.89 0.0
07 10:55 NE 7 10.00 Overcast OVC032 55.6 43 63% 29.9 0.0
07 10:35 NE 6 10.00 Overcast OVC032 54 42.4 65% 29.91 0.0
07 10:15 NE 5 10.00 Overcast OVC032 54 43.7 68% 29.91 0.0
07 09:55 NE 6 10.00 Overcast OVC032 54.1 41.7 63% 29.91 0.0
07 09:35 NE 5 10.00 Overcast SCT024 OVC030 53.6 47.1 79% 29.92 0.0
07 09:15 NE 7 10.00 Overcast OVC026 53.8 47.5 79% 29.92 0.0
07 08:55 NE 8 10.00 Overcast BKN028 OVC034 54 46.9 77% 29.92 0.0
07 08:35 N 5 10.00 Overcast SCT034 BKN046 OVC049 54.7 45 70% 29.91 0.0
07 08:15 NE 3 10.00 Overcast OVC049 54.7 45 70% 29.9 0.0
07 07:55 Calm 10.00 Overcast BKN049 OVC070 54.5 45 57.4 52.9 70% 29.9 0.0
07 07:35 NE 3 10.00 Overcast OVC049 54.3 45.3 72% 29.9 0.0
07 07:15 Calm 10.00 Overcast OVC049 54 47.3 78% 29.89 0.0
07 06:55 NE 3 10.00 Overcast OVC049 53.2 49.8 88% 29.88 0.0
07 06:35 Calm 10.00 Overcast OVC047 52.9 51.3 94% 29.89 0.0
07 06:15 Calm 10.00 Overcast SCT040 OVC047 53.6 46.6 77% 29.88 0.0
07 05:55 Calm 10.00 Overcast BKN036 OVC045 53.1 51.6 95% 29.88 0.0
07 05:35 Calm 10.00 Overcast BKN034 OVC041 53.6 48.4 83% 29.88 0.0
07 05:15 Calm 10.00 Overcast BKN034 OVC041 53.8 48 81% 29.88 0.0
07 04:55 NE 3 10.00 Overcast OVC032 53.8 47.5 79% 29.87 0.0
07 04:35 NE 3 10.00 Overcast OVC029 54 46.2 75% 29.87 0.0
07 04:15 NE 3 10.00 Overcast OVC029 54.7 44.8 69% 29.88 0.0
07 03:55 Calm 10.00 Overcast OVC027 54.5 45.3 71% 29.88 0.0
07 03:35 NE 7 10.00 Overcast OVC027 54.9 46 72% 29.87 0.0
07 03:15 NE 6 10.00 Overcast OVC025 55.4 47.3 74% 29.86 0.0
07 02:55 N 7 10.00 Overcast OVC025 55.9 48 75% 29.86 0.0
07 02:35 N 6 10.00 Overcast OVC025 56.7 49.8 78% 29.87 0.0
07 02:15 NE 6 10.00 Overcast BKN025 OVC031 56.8 53.1 87% 29.86 0.0
07 01:55 NE 5 10.00 Overcast OVC031 57.4 55.4 93% 29.87 0.0 0.01
07 01:35 NE 6 10.00 Overcast OVC031 58.1 54.1 87% 29.86 0.0
07 01:15 NE 7 10.00 Overcast SCT025 OVC031 58.6 54 85% 29.85 0.0
07 00:55 N 7 10.00 Overcast SCT025 BKN033 OVC040 59 56.1 90% 29.85 0.0
07 00:35 N 6 10.00 Mostly Cloudy BKN041 BKN095 BKN120 59.2 57.7 95% 29.84 0.0
07 00:15 N 6 10.00 Mostly Cloudy SCT042 SCT048 BKN120 58.5 57.4 96% 29.82 0.0
06 23:55 N 6 10.00 Overcast SCT040 BKN047 OVC050 59.9 59 97% 29.85 0.0
06 23:35 N 5 10.00 Overcast SCT040 OVC047 61.2 59.5 94% 29.86 0.0
06 23:15 N 6 10.00 Overcast OVC049 61.3 60.3 96% 29.84 0.0
06 22:55 N 6 10.00 Overcast OVC047 62.8 61.2 94% 29.84 0.0
06 22:35 N 5 10.00 Overcast SCT044 OVC050 0 0 0% 29.83 0.0
06 22:15 N 3 10.00 Overcast SCT040 BKN050 OVC060 62.2 61.2 96% 29.81 0.0
06 21:55 Calm 10.00 Overcast BKN038 BKN050 OVC060 62.6 61.5 96% 29.82 0.0
06 21:35 N 3 10.00 Mostly Cloudy SCT038 SCT050 BKN065 0 0 0% 29.82 0.0
06 21:15 E 3 10.00 Mostly Cloudy SCT065 BKN075 BKN090 0 0 0% 29.79 0.0
06 20:55 Calm 10.00 Overcast BKN075 OVC085 0 0 0% 29.82 0.0
06 20:35 Calm 10.00 Overcast SCT050 BKN075 OVC085 0 0 0% 29.82 0.0
06 20:15 Calm 10.00 Overcast SCT050 BKN075 OVC085 65.5 63 92% 29.82 0.0
06 19:55 N 5 10.00 Overcast SCT048 BKN065 OVC085 66.2 65.1 96% 29.8 0.0 0.08
06 19:35 N 3 10.00 Overcast SCT048 BKN060 OVC075 0 0 0% 29.79 0.0
06 19:15 Calm 10.00 Overcast SCT045 BKN050 OVC080 0 0 0% 29.78 0.0
06 18:55 Calm 10.00 Overcast SCT038 BKN050 OVC075 0 0 0% 29.77 0.0 0.08
06 18:35 Calm 10.00 Overcast BKN038 OVC048 67.5 65.3 93% 29.77 0.0 0.08
06 18:15 NW 5 7.00 Overcast SCT035 OVC043 67.8 66.7 96% 29.77 0.0 0.07
06 17:55 Calm 10.00 NULL NULL 72.9 60.1 64% 29.76 0.0
06 17:35 SW 3 10.00 NULL NULL 73.8 59.2 60% 29.75 0.0
06 17:15 SW 8 10.00 NULL NULL 73.8 58.8 60% 29.75 0.0
06 16:55 S 5 10.00 NULL NULL 74.5 58.5 58% 29.74 0.0
06 16:35 SW 7 10.00 NULL NULL 74.3 58.6 58% 29.74 0.0
Date Time (edt) Wind (mph) Vis. (mi.) Weather Sky Cond. Air Dwpt Max. Min. Relative Humidity Wind Chill (°F) Heat Index (°F) altimeter (in) sea level (mb) 1 hr 3 hr 6 hr
6 hour
Temperature (ºF) Pressure Precipitation (in)